KRAP/RAP METAR and TAF weather

Enter ICAO airport designator
Station Type Date Time Source
KRAP METAR 2022/06/25 22:52 UTC NOAA

KRAP 252252Z 35026G33KT 10SM CLR 20/04 A3029 RMK AO2 PK WND 35033/2252 SLP249 T02000044


Station Type Date Time Source
KRAP Decoded METAR 2022/06/25 22:52 UTC NOAA

RAPID CITY REGIONAL AIRPORT , SD, United States (KRAP) 44-03N 103-03W 965M
Jun 25, 2022 - 06:52 PM EDT / 2022.06.25 2252 UTC
Wind: from the N (350 degrees) at 30 MPH (26 KT) gusting to 38 MPH (33 KT):0
Visibility: 10 mile(s):0
Sky conditions: clear
Temperature: 68.0 F (20.0 C)
Dew Point: 39.9 F (4.4 C)
Relative Humidity: 35%
Pressure (altimeter): 30.29 in. Hg (1025 hPa)
ob: KRAP 252252Z 35026G33KT 10SM CLR 20/04 A3029 RMK AO2 PK WND 35033/2252 SLP249 T02000044
cycle: 23

Station Type Date Time Source
KRAP TAF 2022/06/25 18:22 UTC NOAA

TAF KRAP 251720Z 2518/2618 34022G35KT P6SM SCT060
FM260000 33021G31KT P6SM FEW060
FM260200 31011KT P6SM SKC

Example: see airport list